LPFRLEZL

Guest
Details From LPFR - Faro
To LEZL - Sevilla
Flight Number -
Tags Generated
Created
Modified
Stats Distance 102 nm / 189 km
Max Altitude 0 ft / 0 m
Waypoints 2
Social Downloads 0
Likes 0
Share VATSIM

Download

Looking for another format? Having issues loading an existing format? Contact us
Advertisement - Login to hide

Notes

Generated

Route

LPFR LEZL

ID Type Via Altitude Latitude Longitude Leg Dist Tot Dist Heading (true) Name
O LPFR APT - 0 ft / 0 m 37.01729˚ -7.98609˚ - 0 nm - -
O LEZL APT - 0 ft / 0 m 37.41788˚ -5.91208˚ 102 nm 102 nm 76° / 77° -

Altitude Profile

Advertisement - Login to hide

LPFR

Details ICAO LPFR (FAO)
Name Faro
Region Portugal
Timezone Europe/Lisbon (UTC+1.0)
Stats Elevation 24 ft / 7 m (AMSL)
Location 37.015336° -7.972327°
Runways 1
Magnetic Variation 1.884° W

METAR

LPFR 211100Z 21006KT 180V240 9999 BKN015 19/15 Q1013

Decode

TAF

TAF LPFR 210500Z 2106/2206 VRB03KT 9999 FEW018 PROB30 TEMPO 2106/2108 5000 BR BKN005 BECMG 2108/2110 BKN015 BECMG 2110/2112 23010KT SCT020 BECMG 2114/2116 26015KT CAVOK BECMG 2120/2122 29010KT BECMG 2201/2203 34005KT

Decode

Departure Runways

ID Width Length Bearing (true) Bearing (mag) Surface Threshold Offset Overrun Length
10 148 ft / 45 m 8,148 ft / 2,484 m 100.08° 101.96° Asphalt 148 ft / 45 m 0 ft / 0 m
28 148 ft / 45 m 8,148 ft / 2,484 m 280.10° 281.98° Asphalt 148 ft / 45 m 0 ft / 0 m

LEZL

Details ICAO LEZL (SVQ)
Name Sevilla
Region Spain
Timezone Europe/Madrid (UTC+2.0)
Stats Elevation 111 ft / 34 m (AMSL)
Location 37.417939° -5.893093°
Runways 1
Magnetic Variation 1.246° W

METAR

LEZL 211100Z 27003KT 9999 SCT030 22/14 Q1013 NOSIG

Decode

TAF

TAF LEZL 210800Z 2109/2209 VRB02KT CAVOK TX24/2113Z TN15/2201Z BECMG 2111/2113 25010KT PROB40 TEMPO 2110/2119 4000 SHRA SCT030CB BECMG 2200/2202 VRB02KT TEMPO 2200/2209 BKN012 PROB30 TEMPO 2200/2209 2000 BR OVC004

Decode

Destination Runways

ID Width Length Bearing (true) Bearing (mag) Surface Threshold Offset Overrun Length
09 148 ft / 45 m 11,008 ft / 3,355 m 89.75° 91.00° Asphalt 0 ft / 0 m 0 ft / 0 m
27 148 ft / 45 m 11,008 ft / 3,355 m 269.77° 271.02° Asphalt 0 ft / 0 m 0 ft / 0 m

Approach Navaids

Runway Type Ident Frequency Range Bearing (true) Bearing (mag) Slope Elevation
09 Localiser ISE 111.10 MHz 18 nm / 33 km 89.77° 91.02° - 111 ft / 34 m (AMSL)
09 Glidescope ISE 111.10 MHz 10 nm / 19 km 89.76° 91.00° 3.00° 111 ft / 34 m (AMSL)
09 DME ISE 111.10 MHz 18 nm / 33 km - - - 102 ft / 31 m (AMSL)
27 Localiser ISV 110.10 MHz 18 nm / 33 km 269.74° 270.99° - 111 ft / 34 m (AMSL)
27 Glidescope ISV 110.10 MHz 10 nm / 19 km 269.76° 271.00° 3.00° 22 ft / 7 m (AMSL)
27 DME ISV 110.10 MHz 18 nm / 33 km - - - 22 ft / 7 m (AMSL)

Popular Alternatives